EZY89AL EGPH-GCTS
Flight info
| Callsign | EZY89AL |
|---|---|
| Flight time | N/A |
| Altitude | 38000 |
| Route | GOSAM1C GOSAM DCT TRN DCT DEGOS DCT LASNO/M080F380 T9 BEGAS/N0467F380 DCT RIPEL DCT ORTIS ORTIS1G |
| Aircraft | A320/M-V/N |
Departure
| Time | 2026-05-04 10:16 |
|---|---|
| Airport | Edinburgh Airport (EGPH) |
Arrival
| Time | N/A |
|---|---|
| Airport | Tenerife Sur Airport (GCTS) |
| Time | Latitude | Longitude | Altitude | Speed | Heading |
|---|---|---|---|---|---|
| 2026-05-04 09:44 | 55.94803 | -3.36637 | 110 ft | 0 kts | 89° |
| 2026-05-04 10:06 | 55.94802 | -3.36672 | 112 ft | 4 kts | 82° |
| 2026-05-04 10:06 | 55.94796 | -3.36718 | 109 ft | 4 kts | 63° |
| 2026-05-04 10:06 | 55.94780 | -3.36754 | 109 ft | 4 kts | 25° |
| 2026-05-04 10:08 | 55.94764 | -3.36759 | 111 ft | 0 kts | 332° |
| 2026-05-04 10:09 | 55.94818 | -3.36779 | 112 ft | 14 kts | 358° |
| 2026-05-04 10:09 | 55.94909 | -3.36820 | 112 ft | 14 kts | 332° |
| 2026-05-04 10:09 | 55.94976 | -3.36753 | 112 ft | 11 kts | 59° |
| 2026-05-04 10:09 | 55.95020 | -3.36622 | 111 ft | 14 kts | 59° |
| 2026-05-04 10:10 | 55.95079 | -3.36449 | 112 ft | 17 kts | 59° |
| 2026-05-04 10:10 | 55.95135 | -3.36282 | 112 ft | 15 kts | 59° |
| 2026-05-04 10:10 | 55.95184 | -3.36135 | 112 ft | 13 kts | 59° |
| 2026-05-04 10:10 | 55.95226 | -3.36010 | 112 ft | 11 kts | 61° |
| 2026-05-04 10:11 | 55.95263 | -3.35903 | 112 ft | 9 kts | 58° |
| 2026-05-04 10:11 | 55.95293 | -3.35815 | 111 ft | 8 kts | 58° |
| 2026-05-04 10:11 | 55.95347 | -3.35654 | 112 ft | 19 kts | 60° |
| 2026-05-04 10:11 | 55.95409 | -3.35474 | 111 ft | 16 kts | 59° |
| 2026-05-04 10:12 | 55.95489 | -3.35433 | 113 ft | 13 kts | 333° |
| 2026-05-04 10:12 | 55.95565 | -3.35528 | 113 ft | 13 kts | 300° |
| 2026-05-04 10:12 | 55.95547 | -3.35637 | 113 ft | 0 kts | 238° |
| 2026-05-04 10:14 | 55.95543 | -3.35646 | 111 ft | 6 kts | 238° |
| 2026-05-04 10:14 | 55.95387 | -3.36109 | 108 ft | 81 kts | 239° |
| 2026-05-04 10:16 | 55.91000 | -3.48101 | 3945 ft | 182 kts | 253° |
| 2026-05-04 10:16 | 55.90707 | -3.50480 | 4017 ft | 214 kts | 262° |
| 2026-05-04 10:16 | 55.90490 | -3.53293 | 4217 ft | 241 kts | 261° |
| 2026-05-04 10:16 | 55.90162 | -3.56289 | 4874 ft | 250 kts | 259° |
| 2026-05-04 10:17 | 55.89789 | -3.59334 | 5627 ft | 254 kts | 259° |
| 2026-05-04 10:17 | 55.89410 | -3.62445 | 6250 ft | 258 kts | 259° |
| 2026-05-04 10:19 | 55.86976 | -3.85546 | 10462 ft | 313 kts | 261° |
| 2026-05-04 10:19 | 55.86586 | -3.89483 | 10729 ft | 329 kts | 261° |
| 2026-05-04 10:19 | 55.86183 | -3.93525 | 11301 ft | 334 kts | 261° |
| 2026-05-04 10:19 | 55.85773 | -3.97626 | 11922 ft | 338 kts | 261° |
| 2026-05-04 10:20 | 55.85357 | -4.01768 | 12537 ft | 342 kts | 262° |
| 2026-05-04 10:20 | 55.84937 | -4.05949 | 13169 ft | 345 kts | 262° |
| 2026-05-04 10:20 | 55.84410 | -4.10135 | 13772 ft | 351 kts | 252° |
| 2026-05-04 10:20 | 55.83216 | -4.13962 | 14304 ft | 359 kts | 233° |
| 2026-05-04 10:21 | 55.81348 | -4.16966 | 14824 ft | 367 kts | 218° |
| 2026-05-04 10:21 | 55.79263 | -4.19614 | 15368 ft | 370 kts | 218° |
| 2026-05-04 10:21 | 55.77149 | -4.22262 | 15904 ft | 373 kts | 217° |
| 2026-05-04 10:21 | 55.75017 | -4.24902 | 16437 ft | 376 kts | 217° |
| 2026-05-04 10:22 | 55.70687 | -4.30238 | 17471 ft | 381 kts | 217° |
| 2026-05-04 10:22 | 55.68503 | -4.32940 | 17971 ft | 385 kts | 217° |
| 2026-05-04 10:22 | 55.66297 | -4.35669 | 18451 ft | 388 kts | 218° |
| 2026-05-04 10:23 | 55.64077 | -4.38414 | 18869 ft | 391 kts | 217° |
| 2026-05-04 10:23 | 55.61834 | -4.41181 | 19272 ft | 394 kts | 217° |
| 2026-05-04 10:25 | 55.45615 | -4.61056 | 21976 ft | 417 kts | 217° |
| 2026-05-04 10:25 | 55.43278 | -4.63910 | 22322 ft | 421 kts | 216° |
| 2026-05-04 10:25 | 55.40802 | -4.66925 | 22671 ft | 424 kts | 216° |
| 2026-05-04 10:25 | 55.38363 | -4.69890 | 23037 ft | 427 kts | 216° |
| 2026-05-04 10:26 | 55.35908 | -4.72867 | 23395 ft | 430 kts | 216° |
| 2026-05-04 10:26 | 55.33433 | -4.75863 | 23734 ft | 433 kts | 216° |
| 2026-05-04 10:26 | 55.31065 | -4.79143 | 24017 ft | 434 kts | 225° |
| 2026-05-04 10:26 | 55.28992 | -4.82998 | 24316 ft | 435 kts | 231° |
| 2026-05-04 10:27 | 55.26979 | -4.86988 | 24621 ft | 437 kts | 231° |
| 2026-05-04 10:27 | 55.24954 | -4.90986 | 24918 ft | 439 kts | 230° |
| 2026-05-04 10:27 | 55.22915 | -4.94988 | 25202 ft | 442 kts | 230° |
| 2026-05-04 10:27 | 55.20859 | -4.99005 | 25470 ft | 444 kts | 230° |
| 2026-05-04 10:28 | 55.18790 | -5.03035 | 25752 ft | 446 kts | 230° |
| 2026-05-04 10:28 | 55.16715 | -5.07081 | 26041 ft | 448 kts | 230° |
| 2026-05-04 10:28 | 55.14626 | -5.11160 | 26279 ft | 452 kts | 230° |
| 2026-05-04 10:28 | 55.12525 | -5.15262 | 26503 ft | 455 kts | 230° |
| 2026-05-04 10:29 | 55.10403 | -5.19389 | 26770 ft | 457 kts | 230° |
| 2026-05-04 10:29 | 55.08268 | -5.23527 | 27042 ft | 459 kts | 230° |
| 2026-05-04 10:29 | 55.06151 | -5.27623 | 27317 ft | 462 kts | 230° |
| 2026-05-04 10:29 | 55.03996 | -5.31786 | 27573 ft | 464 kts | 230° |
| 2026-05-04 10:30 | 55.01826 | -5.35970 | 27835 ft | 466 kts | 230° |
| 2026-05-04 10:30 | 54.99647 | -5.40163 | 28081 ft | 468 kts | 230° |
| 2026-05-04 10:30 | 54.97457 | -5.44371 | 28318 ft | 470 kts | 230° |
| 2026-05-04 10:30 | 54.95258 | -5.48589 | 28572 ft | 471 kts | 230° |
| 2026-05-04 10:31 | 54.93048 | -5.52815 | 28812 ft | 473 kts | 230° |
| 2026-05-04 10:31 | 54.90829 | -5.57055 | 29090 ft | 475 kts | 230° |
| 2026-05-04 10:32 | 54.77281 | -5.82801 | 30502 ft | 484 kts | 229° |
| 2026-05-04 10:33 | 54.75006 | -5.87093 | 30792 ft | 483 kts | 229° |
| 2026-05-04 10:33 | 54.72732 | -5.91373 | 31071 ft | 482 kts | 229° |
| 2026-05-04 10:33 | 54.70465 | -5.95634 | 31360 ft | 481 kts | 229° |
| 2026-05-04 10:33 | 54.68234 | -5.99829 | 31734 ft | 480 kts | 229° |
| 2026-05-04 10:34 | 54.65978 | -6.04069 | 32066 ft | 478 kts | 229° |
| 2026-05-04 10:34 | 54.63727 | -6.08289 | 32359 ft | 477 kts | 229° |
| 2026-05-04 10:34 | 54.61478 | -6.12498 | 32637 ft | 476 kts | 229° |
| 2026-05-04 10:34 | 54.59226 | -6.16700 | 32930 ft | 475 kts | 228° |
| 2026-05-04 10:35 | 54.56973 | -6.20893 | 33104 ft | 477 kts | 228° |
| 2026-05-04 10:35 | 54.54716 | -6.25088 | 33311 ft | 478 kts | 228° |
| 2026-05-04 10:35 | 54.52457 | -6.29274 | 33555 ft | 477 kts | 227° |
| 2026-05-04 10:35 | 54.50194 | -6.33448 | 33838 ft | 477 kts | 227° |
| 2026-05-04 10:36 | 54.47932 | -6.37612 | 34117 ft | 476 kts | 227° |
| 2026-05-04 10:36 | 54.45674 | -6.41775 | 34353 ft | 475 kts | 227° |
| 2026-05-04 10:36 | 54.43427 | -6.45926 | 34598 ft | 473 kts | 227° |
| 2026-05-04 10:36 | 54.41188 | -6.50060 | 34869 ft | 471 kts | 227° |
| 2026-05-04 10:37 | 54.38981 | -6.54123 | 35114 ft | 470 kts | 227° |
| 2026-05-04 10:37 | 54.36752 | -6.58211 | 35336 ft | 469 kts | 227° |
| 2026-05-04 10:37 | 54.34523 | -6.62287 | 35554 ft | 468 kts | 227° |
| 2026-05-04 10:37 | 54.32295 | -6.66355 | 35763 ft | 467 kts | 227° |
| 2026-05-04 10:39 | 54.18344 | -6.89500 | 36703 ft | 466 kts | 209° |
| 2026-05-04 10:39 | 54.15421 | -6.91868 | 36864 ft | 465 kts | 199° |
| 2026-05-04 10:39 | 54.12330 | -6.93438 | 37018 ft | 464 kts | 193° |
| 2026-05-04 10:40 | 54.09191 | -6.94741 | 37177 ft | 463 kts | 193° |
| 2026-05-04 10:40 | 54.06057 | -6.96056 | 37340 ft | 463 kts | 193° |
| 2026-05-04 10:40 | 54.02933 | -6.97380 | 37480 ft | 463 kts | 193° |
| 2026-05-04 10:40 | 53.99849 | -6.98693 | 37614 ft | 463 kts | 193° |
| 2026-05-04 10:41 | 53.96722 | -7.00019 | 37753 ft | 462 kts | 193° |
| 2026-05-04 10:41 | 53.93600 | -7.01341 | 37885 ft | 462 kts | 193° |
| 2026-05-04 10:41 | 53.90484 | -7.02656 | 38054 ft | 461 kts | 193° |
| 2026-05-04 10:42 | 53.84241 | -7.05274 | 38100 ft | 463 kts | 193° |
| 2026-05-04 10:42 | 53.77971 | -7.07887 | 38104 ft | 463 kts | 193° |
| 2026-05-04 10:43 | 53.71746 | -7.10473 | 38092 ft | 463 kts | 193° |
| 2026-05-04 10:45 | 53.46701 | -7.20822 | 38106 ft | 463 kts | 193° |
| 2026-05-04 10:45 | 53.40444 | -7.23390 | 38096 ft | 462 kts | 193° |
| 2026-05-04 10:46 | 53.34190 | -7.25933 | 38094 ft | 462 kts | 192° |
| 2026-05-04 10:46 | 53.27946 | -7.28473 | 38094 ft | 462 kts | 193° |
| 2026-05-04 10:47 | 53.21697 | -7.31021 | 38097 ft | 462 kts | 193° |
| 2026-05-04 10:47 | 53.16505 | -7.33128 | 38094 ft | 462 kts | 193° |
| 2026-05-04 10:49 | 52.91531 | -7.43183 | 38106 ft | 462 kts | 192° |
| 2026-05-04 10:50 | 52.85281 | -7.45672 | 38103 ft | 462 kts | 192° |
| 2026-05-04 10:52 | 52.60277 | -7.55578 | 38087 ft | 462 kts | 192° |
| 2026-05-04 10:52 | 52.54019 | -7.58037 | 38098 ft | 462 kts | 192° |
| 2026-05-04 10:54 | 52.28972 | -7.67802 | 38093 ft | 464 kts | 192° |
| 2026-05-04 10:56 | 52.03829 | -7.77526 | 38089 ft | 465 kts | 192° |
| 2026-05-04 10:57 | 51.97535 | -7.79940 | 38098 ft | 465 kts | 192° |
| 2026-05-04 10:57 | 51.91239 | -7.82342 | 38082 ft | 465 kts | 191° |
| 2026-05-04 10:58 | 51.84937 | -7.84740 | 38077 ft | 465 kts | 191° |
| 2026-05-04 10:58 | 51.78672 | -7.87128 | 38079 ft | 466 kts | 191° |
| 2026-05-04 10:59 | 51.72358 | -7.89522 | 38092 ft | 466 kts | 191° |
| 2026-05-04 10:59 | 51.66040 | -7.91909 | 38090 ft | 466 kts | 191° |
| 2026-05-04 11:00 | 51.59723 | -7.94280 | 38087 ft | 466 kts | 191° |
| 2026-05-04 11:02 | 51.34502 | -8.03720 | 38082 ft | 465 kts | 191° |
| 2026-05-04 11:05 | 50.87215 | -8.21114 | 38067 ft | 466 kts | 191° |
| 2026-05-04 11:06 | 50.80898 | -8.23411 | 38060 ft | 466 kts | 191° |
| 2026-05-04 11:06 | 50.74607 | -8.25688 | 38057 ft | 466 kts | 191° |
| 2026-05-04 11:10 | 50.30354 | -8.41549 | 38050 ft | 467 kts | 191° |
| 2026-05-04 11:12 | 50.05047 | -8.50495 | 38054 ft | 467 kts | 191° |
| 2026-05-04 11:12 | 49.98704 | -8.52721 | 38052 ft | 467 kts | 191° |
| 2026-05-04 11:13 | 49.92351 | -8.54930 | 38050 ft | 467 kts | 191° |
| 2026-05-04 11:13 | 49.86008 | -8.57148 | 38057 ft | 467 kts | 192° |
| 2026-05-04 11:14 | 49.79666 | -8.59356 | 38057 ft | 466 kts | 192° |
| 2026-05-04 11:16 | 49.54326 | -8.68124 | 38050 ft | 467 kts | 191° |
| 2026-05-04 11:16 | 49.47971 | -8.70299 | 38043 ft | 468 kts | 191° |
| 2026-05-04 11:17 | 49.41620 | -8.72474 | 38053 ft | 468 kts | 191° |
| 2026-05-04 11:19 | 49.16291 | -8.81093 | 38057 ft | 466 kts | 191° |
| 2026-05-04 11:19 | 49.09965 | -8.83230 | 38056 ft | 465 kts | 192° |
| 2026-05-04 11:20 | 49.03649 | -8.85355 | 38044 ft | 465 kts | 192° |
| 2026-05-04 11:20 | 48.97332 | -8.87481 | 38038 ft | 465 kts | 192° |
| 2026-05-04 11:22 | 48.72079 | -8.95937 | 38043 ft | 464 kts | 192° |
| 2026-05-04 11:23 | 48.65766 | -8.98036 | 38040 ft | 464 kts | 192° |
| 2026-05-04 11:24 | 48.46576 | -8.99976 | 38032 ft | 462 kts | 179° |
| 2026-05-04 11:25 | 48.43400 | -8.99979 | 38036 ft | 462 kts | 179° |
| 2026-05-04 11:25 | 48.36963 | -8.99983 | 38037 ft | 463 kts | 179° |
| 2026-05-04 11:27 | 48.07996 | -8.99987 | 38040 ft | 462 kts | 179° |
| 2026-05-04 11:28 | 48.01572 | -8.99992 | 38038 ft | 462 kts | 179° |
| 2026-05-04 11:28 | 47.95140 | -8.99998 | 38037 ft | 462 kts | 179° |
| 2026-05-04 11:29 | 47.88748 | -8.99985 | 38035 ft | 462 kts | 179° |
| 2026-05-04 11:29 | 47.82317 | -8.99984 | 38038 ft | 462 kts | 179° |
| 2026-05-04 11:33 | 47.37316 | -8.99993 | 38030 ft | 463 kts | 180° |
| 2026-05-04 11:33 | 47.30874 | -8.99982 | 38028 ft | 463 kts | 180° |
| 2026-05-04 11:34 | 47.24431 | -8.99981 | 38032 ft | 463 kts | 180° |
| 2026-05-04 11:34 | 47.17994 | -8.99983 | 38034 ft | 462 kts | 180° |
| 2026-05-04 11:35 | 47.11564 | -8.99995 | 38035 ft | 462 kts | 180° |
| 2026-05-04 11:35 | 47.05124 | -8.99989 | 38033 ft | 462 kts | 180° |
| 2026-05-04 11:36 | 46.99782 | -8.99987 | 38036 ft | 462 kts | 180° |
| 2026-05-04 11:36 | 46.93349 | -8.99992 | 38036 ft | 461 kts | 180° |
| 2026-05-04 11:37 | 46.86929 | -9.00001 | 38030 ft | 461 kts | 180° |
| 2026-05-04 11:37 | 46.80505 | -8.99994 | 38027 ft | 462 kts | 180° |
| 2026-05-04 11:38 | 46.74118 | -8.99982 | 38027 ft | 462 kts | 180° |
| 2026-05-04 11:38 | 46.67678 | -8.99981 | 38034 ft | 462 kts | 181° |
| 2026-05-04 11:39 | 46.61239 | -8.99987 | 38035 ft | 462 kts | 181° |
| 2026-05-04 11:41 | 46.38738 | -8.99980 | 38040 ft | 461 kts | 180° |
| 2026-05-04 11:41 | 46.32320 | -8.99988 | 38040 ft | 461 kts | 181° |
| 2026-05-04 11:42 | 46.25896 | -8.99995 | 38040 ft | 461 kts | 181° |
| 2026-05-04 11:42 | 46.19524 | -8.99993 | 38038 ft | 461 kts | 181° |
| 2026-05-04 11:43 | 46.13101 | -8.99996 | 38039 ft | 461 kts | 180° |
| 2026-05-04 11:43 | 46.06679 | -8.99991 | 38039 ft | 461 kts | 181° |
| 2026-05-04 11:44 | 46.00270 | -8.99987 | 38036 ft | 461 kts | 181° |
| 2026-05-04 11:44 | 45.93857 | -8.99982 | 38039 ft | 460 kts | 181° |
| 2026-05-04 11:45 | 45.87452 | -8.99985 | 38040 ft | 460 kts | 181° |
| 2026-05-04 11:45 | 45.81049 | -8.99987 | 38036 ft | 460 kts | 181° |
| 2026-05-04 11:46 | 45.74651 | -8.99984 | 38039 ft | 460 kts | 181° |
| 2026-05-04 11:46 | 45.68259 | -8.99984 | 38039 ft | 459 kts | 181° |
| 2026-05-04 11:47 | 45.61903 | -8.99979 | 38042 ft | 459 kts | 181° |
| 2026-05-04 11:47 | 45.55510 | -8.99978 | 38030 ft | 459 kts | 181° |
| 2026-05-04 11:48 | 45.49108 | -8.99980 | 38032 ft | 460 kts | 181° |
| 2026-05-04 11:48 | 45.42703 | -8.99988 | 38035 ft | 460 kts | 181° |
| 2026-05-04 11:49 | 45.36340 | -8.99992 | 38039 ft | 460 kts | 181° |
| 2026-05-04 11:49 | 45.29934 | -8.99995 | 38044 ft | 460 kts | 181° |
| 2026-05-04 11:50 | 45.23530 | -8.99997 | 38045 ft | 460 kts | 181° |
| 2026-05-04 11:50 | 45.17128 | -8.99984 | 38044 ft | 460 kts | 181° |
| 2026-05-04 11:51 | 45.10732 | -8.99983 | 38045 ft | 460 kts | 181° |
| 2026-05-04 11:51 | 45.04393 | -9.00620 | 38043 ft | 454 kts | 200° |
| 2026-05-04 11:52 | 44.98391 | -9.03334 | 38035 ft | 454 kts | 197° |
| 2026-05-04 11:52 | 44.92277 | -9.05624 | 38036 ft | 454 kts | 199° |
| 2026-05-04 11:53 | 44.86459 | -9.08988 | 38043 ft | 452 kts | 208° |
| 2026-05-04 11:53 | 44.80893 | -9.13113 | 38043 ft | 451 kts | 210° |
| 2026-05-04 11:55 | 44.58424 | -9.28967 | 38058 ft | 453 kts | 208° |
| 2026-05-04 11:56 | 44.52777 | -9.32870 | 38056 ft | 452 kts | 208° |
| 2026-05-04 11:56 | 44.47134 | -9.36789 | 38056 ft | 452 kts | 208° |
| 2026-05-04 11:57 | 44.41493 | -9.40695 | 38065 ft | 452 kts | 208° |
| 2026-05-04 11:57 | 44.35848 | -9.44581 | 38072 ft | 452 kts | 208° |
| 2026-05-04 11:58 | 44.30196 | -9.48449 | 38056 ft | 452 kts | 208° |
| 2026-05-04 11:58 | 44.24536 | -9.52317 | 38062 ft | 453 kts | 208° |
| 2026-05-04 11:59 | 44.18878 | -9.56185 | 38063 ft | 453 kts | 208° |
| 2026-05-04 11:59 | 44.13209 | -9.60044 | 38068 ft | 454 kts | 208° |
| 2026-05-04 12:00 | 44.07535 | -9.63895 | 38072 ft | 454 kts | 208° |
| 2026-05-04 12:00 | 44.01863 | -9.67735 | 38077 ft | 453 kts | 208° |
| 2026-05-04 12:01 | 43.96226 | -9.71543 | 38080 ft | 453 kts | 208° |
| 2026-05-04 12:02 | 43.76399 | -9.84909 | 38079 ft | 453 kts | 208° |
| 2026-05-04 12:03 | 43.70729 | -9.88713 | 38088 ft | 453 kts | 208° |
| 2026-05-04 12:03 | 43.65051 | -9.92517 | 38089 ft | 453 kts | 208° |
| 2026-05-04 12:04 | 43.59370 | -9.96299 | 38089 ft | 453 kts | 208° |
| 2026-05-04 12:04 | 43.53687 | -10.00071 | 38099 ft | 453 kts | 209° |
| 2026-05-04 12:05 | 43.48043 | -10.03817 | 38099 ft | 453 kts | 209° |
| 2026-05-04 12:05 | 43.42369 | -10.07580 | 38099 ft | 452 kts | 209° |
| 2026-05-04 12:06 | 43.36698 | -10.11337 | 38102 ft | 452 kts | 209° |
| 2026-05-04 12:06 | 43.31038 | -10.15085 | 38100 ft | 451 kts | 209° |
| 2026-05-04 12:07 | 43.25383 | -10.18817 | 38104 ft | 451 kts | 209° |
| 2026-05-04 12:07 | 43.19755 | -10.22510 | 38101 ft | 451 kts | 209° |
| 2026-05-04 12:08 | 43.14093 | -10.26219 | 38088 ft | 451 kts | 209° |
| 2026-05-04 12:08 | 43.08418 | -10.29932 | 38105 ft | 452 kts | 209° |
| 2026-05-04 12:09 | 43.02741 | -10.33640 | 38112 ft | 452 kts | 209° |
| 2026-05-04 12:09 | 42.97068 | -10.37345 | 38115 ft | 452 kts | 209° |
| 2026-05-04 12:10 | 42.91426 | -10.41018 | 38112 ft | 452 kts | 209° |
| 2026-05-04 12:10 | 42.85756 | -10.44704 | 38125 ft | 451 kts | 209° |
| 2026-05-04 12:11 | 42.80086 | -10.48385 | 38129 ft | 451 kts | 209° |
| 2026-05-04 12:11 | 42.74414 | -10.52048 | 38123 ft | 451 kts | 209° |
| 2026-05-04 12:12 | 42.68754 | -10.55717 | 38117 ft | 450 kts | 209° |
| 2026-05-04 12:12 | 42.63093 | -10.59358 | 38116 ft | 450 kts | 210° |
| 2026-05-04 12:14 | 42.40494 | -10.73854 | 38140 ft | 450 kts | 210° |
| 2026-05-04 12:15 | 42.34840 | -10.77456 | 38139 ft | 449 kts | 210° |
| 2026-05-04 12:15 | 42.29181 | -10.81054 | 38140 ft | 449 kts | 210° |
| 2026-05-04 12:16 | 42.23518 | -10.84626 | 38136 ft | 449 kts | 209° |
| 2026-05-04 12:16 | 42.17825 | -10.88139 | 38143 ft | 449 kts | 208° |
| 2026-05-04 12:17 | 42.12138 | -10.91626 | 38138 ft | 449 kts | 209° |
| 2026-05-04 12:17 | 42.06450 | -10.95121 | 38118 ft | 449 kts | 209° |
| 2026-05-04 12:18 | 42.00799 | -10.98597 | 38127 ft | 449 kts | 209° |
| 2026-05-04 12:18 | 41.95075 | -11.02120 | 38140 ft | 449 kts | 209° |
| 2026-05-04 12:19 | 41.89421 | -11.05584 | 38146 ft | 449 kts | 209° |
| 2026-05-04 12:19 | 41.83737 | -11.09071 | 38139 ft | 449 kts | 209° |
| 2026-05-04 12:20 | 41.78060 | -11.12543 | 38148 ft | 448 kts | 209° |
| 2026-05-04 12:20 | 41.72390 | -11.15994 | 38152 ft | 447 kts | 209° |
| 2026-05-04 12:21 | 41.66721 | -11.19438 | 38152 ft | 447 kts | 209° |
| 2026-05-04 12:21 | 41.61058 | -11.22870 | 38141 ft | 446 kts | 209° |
| 2026-05-04 12:22 | 41.55401 | -11.26295 | 38150 ft | 446 kts | 209° |
| 2026-05-04 12:22 | 41.49756 | -11.29725 | 38151 ft | 446 kts | 210° |
| 2026-05-04 12:23 | 41.44106 | -11.33147 | 38145 ft | 446 kts | 209° |
| 2026-05-04 12:23 | 41.38446 | -11.36548 | 38133 ft | 446 kts | 209° |
| 2026-05-04 12:24 | 41.32788 | -11.39943 | 38153 ft | 446 kts | 209° |
| 2026-05-04 12:24 | 41.27177 | -11.43316 | 38158 ft | 445 kts | 209° |
| 2026-05-04 12:25 | 41.21531 | -11.46697 | 38157 ft | 445 kts | 209° |
| 2026-05-04 12:25 | 41.15875 | -11.50071 | 38146 ft | 445 kts | 209° |
| 2026-05-04 12:26 | 41.10221 | -11.53447 | 38163 ft | 445 kts | 209° |
| 2026-05-04 12:26 | 41.05530 | -11.56245 | 38166 ft | 445 kts | 209° |
| 2026-05-04 12:27 | 40.99881 | -11.59611 | 38163 ft | 445 kts | 209° |
| 2026-05-04 12:27 | 40.94231 | -11.62971 | 38158 ft | 445 kts | 210° |
| 2026-05-04 12:28 | 40.88586 | -11.66318 | 38183 ft | 444 kts | 210° |
| 2026-05-04 12:28 | 40.82979 | -11.69626 | 38169 ft | 443 kts | 210° |
| 2026-05-04 12:29 | 40.77350 | -11.72944 | 38170 ft | 443 kts | 210° |
| 2026-05-04 12:29 | 40.71728 | -11.76257 | 38161 ft | 442 kts | 210° |
| 2026-05-04 12:30 | 40.66104 | -11.79571 | 38168 ft | 442 kts | 210° |
| 2026-05-04 12:30 | 40.60494 | -11.82867 | 38167 ft | 441 kts | 210° |
| 2026-05-04 12:31 | 40.54886 | -11.86150 | 38171 ft | 441 kts | 210° |
| 2026-05-04 12:31 | 40.49283 | -11.89423 | 38152 ft | 440 kts | 210° |
| 2026-05-04 12:32 | 40.40894 | -11.94335 | 38174 ft | 440 kts | 210° |
| 2026-05-04 12:33 | 40.35296 | -11.97595 | 38179 ft | 440 kts | 210° |
| 2026-05-04 12:33 | 40.29696 | -12.00848 | 38179 ft | 440 kts | 210° |
| 2026-05-04 12:34 | 40.24144 | -12.04076 | 38167 ft | 439 kts | 210° |
| 2026-05-04 12:34 | 40.18564 | -12.07308 | 38164 ft | 439 kts | 210° |
| 2026-05-04 12:35 | 40.12979 | -12.10526 | 38175 ft | 438 kts | 210° |
| 2026-05-04 12:35 | 40.07400 | -12.13746 | 38175 ft | 438 kts | 210° |
| 2026-05-04 12:36 | 40.01829 | -12.16955 | 38176 ft | 438 kts | 210° |
| 2026-05-04 12:36 | 39.96256 | -12.20159 | 38182 ft | 438 kts | 210° |
| 2026-05-04 12:37 | 39.90681 | -12.23358 | 38187 ft | 438 kts | 210° |
| 2026-05-04 12:37 | 39.85105 | -12.26558 | 38187 ft | 438 kts | 210° |
| 2026-05-04 12:38 | 39.79525 | -12.29752 | 38170 ft | 438 kts | 210° |
| 2026-05-04 12:38 | 39.73944 | -12.32932 | 38178 ft | 438 kts | 210° |
| 2026-05-04 12:39 | 39.68374 | -12.36110 | 38189 ft | 437 kts | 210° |
| 2026-05-04 12:39 | 39.62803 | -12.39281 | 38187 ft | 437 kts | 210° |
| 2026-05-04 12:40 | 39.57274 | -12.42411 | 38148 ft | 436 kts | 210° |
| 2026-05-04 12:40 | 39.51712 | -12.45563 | 38166 ft | 436 kts | 210° |
| 2026-05-04 12:41 | 39.46150 | -12.48713 | 38177 ft | 436 kts | 210° |
| 2026-05-04 12:41 | 39.40585 | -12.51863 | 38186 ft | 436 kts | 210° |
| 2026-05-04 12:42 | 39.35026 | -12.55006 | 38190 ft | 436 kts | 210° |
| 2026-05-04 12:42 | 39.29457 | -12.58144 | 38177 ft | 436 kts | 210° |
| 2026-05-04 12:43 | 39.23889 | -12.61269 | 38188 ft | 436 kts | 210° |
| 2026-05-04 12:43 | 39.18319 | -12.64397 | 38196 ft | 436 kts | 210° |
| 2026-05-04 12:44 | 39.12750 | -12.67510 | 38197 ft | 436 kts | 210° |
| 2026-05-04 12:44 | 39.07185 | -12.70619 | 38172 ft | 436 kts | 210° |
| 2026-05-04 12:45 | 39.01657 | -12.73705 | 38184 ft | 436 kts | 210° |
| 2026-05-04 12:45 | 38.96094 | -12.76799 | 38190 ft | 435 kts | 210° |
| 2026-05-04 12:46 | 38.90533 | -12.79894 | 38182 ft | 435 kts | 210° |
| 2026-05-04 12:46 | 38.84976 | -12.82980 | 38157 ft | 435 kts | 210° |
| 2026-05-04 12:47 | 38.79424 | -12.86056 | 38171 ft | 434 kts | 210° |
| 2026-05-04 12:47 | 38.73871 | -12.89131 | 38195 ft | 434 kts | 210° |
| 2026-05-04 12:48 | 38.68323 | -12.92192 | 38197 ft | 434 kts | 210° |
| 2026-05-04 12:48 | 38.62781 | -12.95247 | 38162 ft | 434 kts | 210° |
| 2026-05-04 12:49 | 38.57243 | -12.98295 | 38180 ft | 433 kts | 210° |
| 2026-05-04 12:49 | 38.51745 | -13.01315 | 38190 ft | 433 kts | 210° |
| 2026-05-04 12:50 | 38.46218 | -13.04360 | 38197 ft | 433 kts | 210° |
| 2026-05-04 12:50 | 38.40683 | -13.07389 | 38202 ft | 433 kts | 210° |
| 2026-05-04 12:51 | 38.35143 | -13.10409 | 38186 ft | 432 kts | 210° |
| 2026-05-04 12:51 | 38.29609 | -13.13428 | 38173 ft | 432 kts | 210° |
| 2026-05-04 12:52 | 38.24096 | -13.16443 | 38190 ft | 431 kts | 210° |
| 2026-05-04 12:52 | 38.18613 | -13.19428 | 38200 ft | 431 kts | 210° |
| 2026-05-04 12:53 | 38.13097 | -13.22415 | 38187 ft | 431 kts | 209° |
| 2026-05-04 12:53 | 38.07579 | -13.25409 | 38201 ft | 430 kts | 210° |
| 2026-05-04 12:54 | 38.02076 | -13.28388 | 38221 ft | 430 kts | 209° |
| 2026-05-04 12:54 | 37.96572 | -13.31355 | 38215 ft | 430 kts | 209° |
| 2026-05-04 12:55 | 37.91068 | -13.34335 | 38215 ft | 430 kts | 210° |
| 2026-05-04 12:55 | 37.85566 | -13.37304 | 38196 ft | 430 kts | 209° |
| 2026-05-04 12:56 | 37.80061 | -13.40258 | 38203 ft | 430 kts | 209° |
| 2026-05-04 12:56 | 37.74561 | -13.43217 | 38208 ft | 429 kts | 209° |
| 2026-05-04 12:57 | 37.69062 | -13.46177 | 38214 ft | 430 kts | 209° |
| 2026-05-04 12:57 | 37.63552 | -13.49117 | 38218 ft | 430 kts | 209° |
| 2026-05-04 12:58 | 37.58039 | -13.52053 | 38215 ft | 430 kts | 209° |
| 2026-05-04 12:58 | 37.52572 | -13.54971 | 38220 ft | 429 kts | 209° |
| 2026-05-04 12:59 | 37.47069 | -13.57915 | 38221 ft | 429 kts | 209° |
| 2026-05-04 12:59 | 37.41570 | -13.60852 | 38221 ft | 429 kts | 209° |
| 2026-05-04 13:00 | 37.36066 | -13.63775 | 38200 ft | 429 kts | 208° |
| 2026-05-04 13:00 | 37.30566 | -13.66685 | 38216 ft | 429 kts | 208° |
| 2026-05-04 13:01 | 37.25072 | -13.69591 | 38218 ft | 429 kts | 208° |
| 2026-05-04 13:01 | 37.19577 | -13.72497 | 38218 ft | 428 kts | 208° |
| 2026-05-04 13:02 | 37.14085 | -13.75399 | 38189 ft | 428 kts | 208° |
| 2026-05-04 13:02 | 37.08622 | -13.78276 | 38203 ft | 428 kts | 208° |
| 2026-05-04 13:03 | 37.03136 | -13.81153 | 38218 ft | 428 kts | 208° |
| 2026-05-04 13:03 | 36.97649 | -13.84039 | 38217 ft | 427 kts | 208° |
| 2026-05-04 13:04 | 36.92157 | -13.86921 | 38209 ft | 427 kts | 208° |
| 2026-05-04 13:04 | 36.86671 | -13.89791 | 38195 ft | 427 kts | 208° |
| 2026-05-04 13:05 | 36.81188 | -13.92657 | 38208 ft | 427 kts | 208° |
| 2026-05-04 13:05 | 36.75737 | -13.95503 | 38217 ft | 427 kts | 208° |
| 2026-05-04 13:06 | 36.70251 | -13.98364 | 38218 ft | 427 kts | 208° |
| 2026-05-04 13:06 | 36.64760 | -14.01215 | 38220 ft | 427 kts | 208° |
| 2026-05-04 13:07 | 36.59280 | -14.04062 | 38217 ft | 426 kts | 209° |
| 2026-05-04 13:07 | 36.53800 | -14.06909 | 38221 ft | 426 kts | 209° |
| 2026-05-04 13:08 | 36.48329 | -14.09741 | 38233 ft | 425 kts | 209° |
| 2026-05-04 13:08 | 36.42892 | -14.12547 | 38221 ft | 425 kts | 209° |
| 2026-05-04 13:09 | 36.37428 | -14.15369 | 38195 ft | 425 kts | 209° |
| 2026-05-04 13:09 | 36.31967 | -14.18183 | 38215 ft | 424 kts | 209° |
| 2026-05-04 13:10 | 36.26514 | -14.20985 | 38222 ft | 423 kts | 209° |
| 2026-05-04 13:10 | 36.21080 | -14.23776 | 38221 ft | 423 kts | 209° |
| 2026-05-04 13:11 | 36.15644 | -14.26568 | 38213 ft | 422 kts | 209° |
| 2026-05-04 13:11 | 36.10221 | -14.29355 | 38196 ft | 421 kts | 209° |
| 2026-05-04 13:12 | 36.04843 | -14.32107 | 38209 ft | 420 kts | 209° |
| 2026-05-04 13:12 | 35.99441 | -14.34866 | 38210 ft | 420 kts | 209° |
| 2026-05-04 13:13 | 35.94043 | -14.37618 | 38216 ft | 420 kts | 209° |
| 2026-05-04 13:13 | 35.88644 | -14.40368 | 38217 ft | 420 kts | 209° |
| 2026-05-04 13:14 | 35.83244 | -14.43115 | 38201 ft | 419 kts | 208° |
| 2026-05-04 13:14 | 35.78771 | -14.45391 | 38218 ft | 418 kts | 208° |
| 2026-05-04 13:15 | 35.73394 | -14.48120 | 38224 ft | 418 kts | 208° |
| 2026-05-04 13:15 | 35.68020 | -14.50842 | 38224 ft | 417 kts | 208° |
| 2026-05-04 13:16 | 35.62651 | -14.53558 | 38220 ft | 417 kts | 208° |
| 2026-05-04 13:16 | 35.57323 | -14.56241 | 38214 ft | 416 kts | 208° |
| 2026-05-04 13:17 | 35.51975 | -14.58940 | 38213 ft | 415 kts | 208° |
| 2026-05-04 13:17 | 35.46639 | -14.61632 | 38215 ft | 414 kts | 208° |
| 2026-05-04 13:18 | 35.41308 | -14.64315 | 38211 ft | 414 kts | 208° |
| 2026-05-04 13:18 | 35.35985 | -14.66992 | 38211 ft | 413 kts | 208° |
| 2026-05-04 13:19 | 35.30694 | -14.69645 | 38199 ft | 412 kts | 208° |
| 2026-05-04 13:19 | 35.25391 | -14.72297 | 38212 ft | 411 kts | 208° |
| 2026-05-04 13:20 | 35.20100 | -14.74943 | 38214 ft | 410 kts | 208° |
| 2026-05-04 13:20 | 35.14814 | -14.77574 | 38211 ft | 410 kts | 208° |
| 2026-05-04 13:21 | 35.09531 | -14.80207 | 38210 ft | 410 kts | 208° |
| 2026-05-04 13:21 | 35.04260 | -14.82848 | 38209 ft | 409 kts | 208° |
| 2026-05-04 13:22 | 34.98987 | -14.85474 | 38205 ft | 409 kts | 208° |
| 2026-05-04 13:22 | 34.93711 | -14.88083 | 38204 ft | 409 kts | 208° |
| 2026-05-04 13:23 | 34.88438 | -14.90705 | 38201 ft | 409 kts | 208° |
| 2026-05-04 13:23 | 34.83168 | -14.93318 | 38208 ft | 409 kts | 208° |
| 2026-05-04 13:24 | 34.77929 | -14.95912 | 38187 ft | 409 kts | 207° |
| 2026-05-04 13:24 | 34.72658 | -14.98507 | 38195 ft | 408 kts | 207° |
| 2026-05-04 13:25 | 34.64754 | -15.02394 | 38195 ft | 408 kts | 207° |
| 2026-05-04 13:25 | 34.59480 | -15.04982 | 38195 ft | 408 kts | 207° |
| 2026-05-04 13:26 | 34.54226 | -15.07573 | 38174 ft | 408 kts | 207° |
| 2026-05-04 13:26 | 34.48968 | -15.10156 | 38182 ft | 407 kts | 207° |
| 2026-05-04 13:27 | 34.43711 | -15.12725 | 38190 ft | 407 kts | 207° |
| 2026-05-04 13:27 | 34.38493 | -15.15269 | 38190 ft | 407 kts | 207° |
| 2026-05-04 13:28 | 34.33245 | -15.17840 | 38190 ft | 407 kts | 207° |
| 2026-05-04 13:28 | 34.27993 | -15.20415 | 38157 ft | 407 kts | 206° |
| 2026-05-04 13:29 | 34.22740 | -15.22975 | 38160 ft | 407 kts | 206° |
| 2026-05-04 13:29 | 34.17482 | -15.25527 | 38168 ft | 407 kts | 206° |
| 2026-05-04 13:30 | 34.12223 | -15.28083 | 38174 ft | 407 kts | 206° |
| 2026-05-04 13:30 | 34.06997 | -15.30628 | 38178 ft | 407 kts | 206° |
| 2026-05-04 13:31 | 34.01737 | -15.33192 | 38147 ft | 408 kts | 206° |
| 2026-05-04 13:31 | 33.96465 | -15.35743 | 38148 ft | 408 kts | 206° |
| 2026-05-04 13:32 | 33.91185 | -15.38298 | 38154 ft | 409 kts | 206° |
| 2026-05-04 13:32 | 33.85896 | -15.40860 | 38153 ft | 410 kts | 206° |
| 2026-05-04 13:33 | 33.80602 | -15.43415 | 38157 ft | 410 kts | 206° |
| 2026-05-04 13:33 | 33.75333 | -15.45948 | 38159 ft | 410 kts | 206° |
| 2026-05-04 13:34 | 33.70028 | -15.48501 | 38124 ft | 411 kts | 206° |
| 2026-05-04 13:34 | 33.64705 | -15.51058 | 38128 ft | 412 kts | 206° |
| 2026-05-04 13:35 | 33.56706 | -15.54888 | 38139 ft | 413 kts | 206° |
| 2026-05-04 13:36 | 33.51367 | -15.57444 | 38154 ft | 413 kts | 206° |
| 2026-05-04 13:36 | 33.46026 | -15.59999 | 38142 ft | 413 kts | 206° |
| 2026-05-04 13:37 | 33.40711 | -15.62534 | 38138 ft | 413 kts | 206° |
| 2026-05-04 13:37 | 33.35372 | -15.65080 | 38143 ft | 413 kts | 206° |
| 2026-05-04 13:38 | 33.30033 | -15.67625 | 38145 ft | 413 kts | 206° |
| 2026-05-04 13:38 | 33.24692 | -15.70166 | 38141 ft | 413 kts | 206° |
| 2026-05-04 13:39 | 33.19355 | -15.72704 | 38120 ft | 413 kts | 206° |
| 2026-05-04 13:39 | 33.14029 | -15.75223 | 38142 ft | 411 kts | 206° |
| 2026-05-04 13:40 | 33.08710 | -15.77735 | 38146 ft | 410 kts | 206° |
| 2026-05-04 13:40 | 33.03413 | -15.80245 | 38144 ft | 409 kts | 206° |